Abiquiu, New Mexico
Current Conditions -  °F | °C
As of 3:15 AM on Saturday 25 Oct 2014 (Local Time) from KLAM Reporting Station
Clear Clear  
Wind Chill: 55°   Ceiling: Unl
Heat Index: 55°   Visibility: 10mi
Dew Point: 19°   Wind: 0mph
Humidity: 25%   Direction: NA
Pressure: 30.39"   Gusts: NA
Location:  36.21°N, 106.32°W
Report Text: KLAM 250915Z AUTO 00000KT 10SM CLR 13/M07 A3039 RMK AO2 T01281071
Loading
Personal Weather Stations






























Interactive Weather Map
Tropical Storm Tracking
New forecast layout! Learn more

10-Day Weather Forecast

Advertisements
Track Severe Weather on mobile